Time;durP1;ratioP1;P1;durP2;ratioP2;P2;SDS_P1;SDS_P2;PMS_P1;PMS_P2;Temp;Humidity;BMP_temperature;BMP_pressure;BME280_temperature;BME280_humidity;BME280_pressure;Samples;Min_cycle;Max_cycle;Signal;HPM_P1;HPM_P2
2022/01/16 00:04:05;;;;;;;11.35;1.98;;;;;;;11.52;45.41;101718.44;5008916;28;20041;-74
2022/01/16 00:04:47;;;;;;;10.60;1.98;;;;;;;11.53;45.27;101603.00;4990052;28;20046;-74
2022/01/16 00:07:14;;;;;;;11.65;2.40;;;;;;;11.49;45.73;101535.91;5014294;28;20038;-73
2022/01/16 00:09:42;;;;;;;7.18;1.70;;;;;;;11.52;46.04;101500.72;4991883;28;20070;-74
2022/01/16 00:12:11;;;;;;;10.60;2.92;;;;;;;11.47;46.00;101478.59;5012395;28;20042;-74
2022/01/16 00:14:39;;;;;;;6.30;1.30;;;;;;;11.45;44.99;101475.91;4992530;28;20041;-74
2022/01/16 00:17:06;;;;;;;8.30;1.70;;;;;;;11.46;44.31;101487.38;4996737;28;20050;-74
2022/01/16 00:19:34;;;;;;;6.97;1.55;;;;;;;11.48;44.22;101510.34;5012233;28;20049;-73
2022/01/16 00:22:12;;;;;;;9.00;2.15;;;;;;;11.51;44.25;101562.41;5012293;28;20046;-74
2022/01/16 00:24:39;;;;;;;10.05;1.55;;;;;;;11.48;44.35;101594.06;5011988;28;20450;-74
2022/01/16 00:27:07;;;;;;;6.95;1.88;;;;;;;11.49;44.65;101583.50;5011844;28;20042;-74
2022/01/16 00:29:35;;;;;;;9.85;2.13;;;;;;;11.43;44.73;101535.75;5011504;28;20078;-74
2022/01/16 00:32:03;;;;;;;10.23;1.80;;;;;;;11.42;44.83;101565.69;5012037;28;20129;-74
2022/01/16 00:34:31;;;;;;;7.50;1.58;;;;;;;11.39;44.54;101564.75;5010446;28;20686;-74
2022/01/16 00:36:59;;;;;;;7.75;1.58;;;;;;;11.38;42.93;101544.44;5011928;28;20092;-74
2022/01/16 00:39:29;;;;;;;5.75;1.23;;;;;;;11.41;41.44;101524.28;5010487;28;20153;-74
2022/01/16 00:41:57;;;;;;;5.07;1.50;;;;;;;11.42;40.72;101501.38;5011558;28;20058;-74
2022/01/16 00:44:24;;;;;;;7.72;1.52;;;;;;;11.40;41.10;101516.31;5011995;28;20033;-73
2022/01/16 00:46:52;;;;;;;7.93;1.90;;;;;;;11.37;40.88;101550.56;5009730;28;20092;-73
2022/01/16 00:49:20;;;;;;;8.20;1.50;;;;;;;11.41;40.28;101548.06;5010030;28;20569;-74
2022/01/16 00:51:48;;;;;;;3.70;1.15;;;;;;;11.38;39.96;101574.41;5011101;28;20092;-74
2022/01/16 00:54:15;;;;;;;7.57;1.77;;;;;;;11.38;40.05;101571.78;5009938;28;20052;-74
2022/01/16 00:56:45;;;;;;;4.50;1.30;;;;;;;11.36;39.32;101606.94;5011002;28;20505;-73
2022/01/16 00:59:12;;;;;;;5.88;1.10;;;;;;;11.38;38.78;101599.97;5010156;28;20049;-73
2022/01/16 01:01:40;;;;;;;5.15;1.40;;;;;;;11.31;39.46;101584.78;5010347;28;20041;-74
2022/01/16 01:04:08;;;;;;;7.00;1.40;;;;;;;11.28;40.11;101595.31;5007854;28;20121;-74
2022/01/16 01:06:35;;;;;;;5.97;1.23;;;;;;;11.24;40.49;101601.34;5011362;28;20038;-73
2022/01/16 01:09:03;;;;;;;4.03;1.20;;;;;;;11.21;40.63;101591.59;5009908;28;20053;-73
2022/01/16 01:11:31;;;;;;;10.57;1.20;;;;;;;11.21;40.14;101598.63;5010783;28;20044;-73
2022/01/16 01:14:20;;;;;;;5.60;1.85;;;;;;;11.21;40.37;101617.13;5004820;28;20498;-74
2022/01/16 01:16:53;;;;;;;7.55;1.70;;;;;;;11.18;39.19;101615.28;5006740;28;20502;-74
2022/01/16 01:19:24;;;;;;;5.50;1.58;;;;;;;11.18;39.36;101612.66;5008879;28;20042;-74
2022/01/16 01:21:51;;;;;;;6.53;1.33;;;;;;;11.17;39.49;101626.72;5008888;28;20042;-74
2022/01/16 01:24:19;;;;;;;4.40;1.15;;;;;;;11.14;40.18;101627.53;5009848;28;20561;-74
2022/01/16 01:26:54;;;;;;;8.75;1.48;;;;;;;11.12;40.96;101628.34;5009319;28;20136;-74
2022/01/16 01:29:23;;;;;;;7.68;1.80;;;;;;;11.18;41.43;101642.63;5010544;28;20034;-74
2022/01/16 01:31:52;;;;;;;6.80;1.38;;;;;;;11.11;41.85;101647.69;5010737;28;20073;-73
2022/01/16 01:34:20;;;;;;;7.13;1.85;;;;;;;11.11;41.86;101637.13;5010394;28;20085;-74
2022/01/16 01:36:49;;;;;;;7.95;1.80;;;;;;;11.09;41.59;101642.34;5009269;28;20062;-74
2022/01/16 01:39:17;;;;;;;7.57;1.75;;;;;;;11.06;41.44;101639.66;5010550;28;20053;-74
2022/01/16 01:41:46;;;;;;;6.20;1.50;;;;;;;11.04;40.89;101651.91;4992916;28;20100;-74
2022/01/16 01:52:30;;;;;;;;;;;;;;;11.00;40.15;101607.78;5009499;28;20054;-75
2022/01/16 01:54:58;;;;;;;3.85;1.25;;;;;;;10.98;40.92;101609.47;5009037;28;20385;-74
2022/01/16 01:57:26;;;;;;;6.82;2.03;;;;;;;10.99;41.82;101626.22;5009923;28;20033;-74
2022/01/16 01:59:53;;;;;;;8.05;1.77;;;;;;;10.96;42.18;101610.31;5009037;28;20140;-73
2022/01/16 02:02:26;;;;;;;7.40;0.98;;;;;;;10.96;41.72;101627.00;5008220;28;20096;-74
2022/01/16 02:04:53;;;;;;;8.18;1.83;;;;;;;10.94;41.42;101628.75;5009112;28;20050;-74
2022/01/16 02:07:21;;;;;;;5.22;1.55;;;;;;;10.92;41.45;101622.50;5008672;28;20038;-74
2022/01/16 02:09:49;;;;;;;6.88;1.40;;;;;;;10.91;41.16;101607.50;4991843;28;20696;-74
2022/01/16 02:12:17;;;;;;;5.45;1.20;;;;;;;10.96;41.37;101599.72;5008601;28;20125;-74
2022/01/16 02:14:57;;;;;;;7.60;1.85;;;;;;;10.96;42.02;101599.72;5009192;28;20081;-74
2022/01/16 02:28:45;;;;;;;6.65;1.65;;;;;;;10.84;41.45;101605.53;5015351;28;20636;-74
2022/01/16 02:31:20;;;;;;;5.82;1.80;;;;;;;10.79;41.37;101597.50;5009270;28;20497;-73
2022/01/16 02:36:45;;;;;;;6.63;1.75;;;;;;;10.72;40.06;101619.31;4972357;28;20078;-74
2022/01/16 02:39:16;;;;;;;4.28;1.25;;;;;;;10.73;40.40;101614.91;4985023;28;20121;-73
2022/01/16 02:41:46;;;;;;;11.57;2.05;;;;;;;10.72;40.77;101626.31;4992461;28;20121;-74
2022/01/16 02:44:20;;;;;;;9.40;1.70;;;;;;;10.73;40.66;101634.31;5008581;28;20058;-73
2022/01/16 02:46:48;;;;;;;7.22;1.92;;;;;;;10.74;40.88;101651.03;5007539;28;20045;-74
2022/01/16 02:49:21;;;;;;;10.70;2.55;;;;;;;10.73;41.23;101650.16;5008500;28;20105;-73
2022/01/16 02:51:49;;;;;;;5.97;1.80;;;;;;;10.68;41.13;101649.13;5007876;28;20038;-75
2022/01/16 02:54:19;;;;;;;5.53;1.60;;;;;;;10.69;40.86;101660.59;4992379;28;20068;-74
2022/01/16 02:56:48;;;;;;;6.80;2.05;;;;;;;10.63;40.76;101641.94;5008061;28;20050;-74
2022/01/16 02:59:17;;;;;;;6.00;1.75;;;;;;;10.60;40.33;101650.63;5008509;28;20045;-74
2022/01/16 03:01:46;;;;;;;9.07;1.65;;;;;;;10.58;40.25;101644.41;5007543;28;20050;-73
2022/01/16 03:04:13;;;;;;;5.10;1.48;;;;;;;10.53;39.74;101656.59;5006743;28;20529;-74
2022/01/16 03:06:41;;;;;;;4.55;1.52;;;;;;;10.51;39.74;101646.81;5009114;28;20069;-74
2022/01/16 03:09:10;;;;;;;4.85;1.63;;;;;;;10.48;39.35;101652.91;4996955;28;20040;-74
2022/01/16 03:11:45;;;;;;;5.47;1.80;;;;;;;10.50;39.45;101631.84;5009587;28;20042;-74
2022/01/16 03:14:14;;;;;;;7.40;1.70;;;;;;;10.46;39.04;101622.03;4992464;28;20062;-74
2022/01/16 03:16:46;;;;;;;5.55;1.95;;;;;;;10.46;40.17;101615.00;4988397;28;20398;-73
2022/01/16 03:22:02;;;;;;;6.25;1.52;;;;;;;10.44;41.13;101634.28;4995669;28;20049;-74
2022/01/16 03:24:33;;;;;;;8.45;1.83;;;;;;;10.44;41.02;101650.13;5007740;28;20092;-73
2022/01/16 03:27:05;;;;;;;6.97;1.80;;;;;;;10.41;41.05;101643.03;5008018;28;20042;-73
2022/01/16 03:29:33;;;;;;;10.52;2.10;;;;;;;10.39;41.45;101656.16;5008823;28;20050;-73
2022/01/16 03:32:02;;;;;;;7.15;2.08;;;;;;;10.37;41.14;101663.13;4993686;28;20410;-74
2022/01/16 03:34:29;;;;;;;6.68;1.50;;;;;;;10.35;39.74;101654.28;5008605;28;20478;-73
2022/01/16 03:36:57;;;;;;;5.88;1.50;;;;;;;10.36;39.58;101663.09;5007564;28;20494;-73
2022/01/16 03:39:25;;;;;;;8.13;2.20;;;;;;;10.32;39.87;101667.38;5009014;28;20045;-73
2022/01/16 03:41:55;;;;;;;5.10;1.80;;;;;;;10.30;39.98;101676.13;5009255;28;20034;-73
2022/01/16 03:44:24;;;;;;;7.47;1.98;;;;;;;10.28;40.38;101660.22;5012493;28;20054;-73
2022/01/16 03:46:52;;;;;;;7.97;1.90;;;;;;;10.28;40.73;101670.78;5012878;28;20974;-74
2022/01/16 03:49:21;;;;;;;9.00;1.95;;;;;;;10.29;40.93;101679.59;5012203;28;20038;-74
2022/01/16 03:51:51;;;;;;;5.55;2.22;;;;;;;10.26;41.25;101687.41;5011440;28;20045;-73
2022/01/16 03:54:21;;;;;;;8.88;2.70;;;;;;;10.27;41.28;101676.00;5012675;28;20082;-73
2022/01/16 03:56:49;;;;;;;12.40;2.15;;;;;;;10.27;41.05;101681.28;5011193;28;20044;-73
2022/01/16 03:59:17;;;;;;;8.15;2.30;;;;;;;10.30;41.65;101686.66;5011296;28;20045;-74
2022/01/16 04:01:46;;;;;;;9.65;3.25;;;;;;;10.29;42.34;101700.72;5012001;28;20041;-73
2022/01/16 04:04:14;;;;;;;8.77;2.67;;;;;;;10.26;42.70;101704.13;5011704;28;20070;-73
2022/01/16 04:06:42;;;;;;;12.18;3.03;;;;;;;10.26;41.11;101719.97;5013211;28;20406;-73
2022/01/16 04:09:09;;;;;;;6.40;2.17;;;;;;;10.27;41.52;101724.41;4995651;28;20057;-73
2022/01/16 04:11:43;;;;;;;6.63;1.85;;;;;;;10.30;41.62;101713.06;4991058;28;20092;-73
2022/01/16 04:14:20;;;;;;;7.53;2.38;;;;;;;10.29;42.42;101704.25;5010702;28;20107;-73
2022/01/16 04:16:49;;;;;;;7.60;2.53;;;;;;;10.33;42.34;101710.50;5012243;28;20041;-73
2022/01/16 04:19:17;;;;;;;7.18;2.40;;;;;;;10.35;42.60;101722.00;5010515;28;20042;-74
2022/01/16 04:21:45;;;;;;;4.25;1.80;;;;;;;10.31;42.91;101712.19;5000509;28;20034;-73
2022/01/16 04:24:13;;;;;;;5.82;2.58;;;;;;;10.29;42.55;101725.34;4990637;28;20093;-72
2022/01/16 04:26:41;;;;;;;9.90;3.67;;;;;;;10.30;41.81;101720.97;4996092;28;20143;-73
2022/01/16 04:29:08;;;;;;;7.00;2.55;;;;;;;10.30;42.76;101720.97;5011768;28;20402;-73
2022/01/16 04:31:36;;;;;;;9.65;3.22;;;;;;;10.28;43.25;101736.75;5011635;28;20042;-73
2022/01/16 04:34:05;;;;;;;8.95;2.38;;;;;;;10.32;43.25;101725.44;5010524;28;20069;-74
2022/01/16 04:36:33;;;;;;;7.28;2.97;;;;;;;10.30;43.45;101716.59;5012183;28;20042;-73
2022/01/16 04:39:01;;;;;;;7.32;2.33;;;;;;;10.26;43.53;101730.53;5011153;28;20042;-73
2022/01/16 04:44:13;;;;;;;5.43;2.00;;;;;;;10.23;42.80;101746.28;4994765;28;20038;-74
2022/01/16 04:46:41;;;;;;;8.23;2.88;;;;;;;10.27;43.29;101740.25;4992338;28;20053;-73
2022/01/16 04:49:10;;;;;;;10.20;3.25;;;;;;;10.30;43.81;101734.16;5005832;28;20056;-74
2022/01/16 04:51:38;;;;;;;8.75;2.75;;;;;;;10.30;44.71;101752.66;5005733;28;20792;-73
2022/01/16 04:54:06;;;;;;;9.63;3.00;;;;;;;10.35;44.08;101741.38;4990174;28;20729;-74
2022/01/16 04:56:35;;;;;;;8.43;3.13;;;;;;;10.39;45.08;101759.09;4990858;28;20046;-73
2022/01/16 04:59:02;;;;;;;11.57;3.47;;;;;;;10.36;45.55;101752.84;4990193;28;20405;-73
2022/01/16 05:01:30;;;;;;;8.45;3.00;;;;;;;10.30;42.84;101760.56;4989470;28;20042;-73
2022/01/16 05:03:58;;;;;;;9.07;3.00;;;;;;;10.25;40.64;101756.84;4989968;28;20049;-74
2022/01/16 05:06:27;;;;;;;5.65;1.83;;;;;;;10.22;40.12;101768.22;4991321;28;20034;-72
2022/01/16 05:08:55;;;;;;;7.70;2.05;;;;;;;10.22;40.27;101764.69;4991691;28;20495;-73
2022/01/16 05:11:25;;;;;;;5.32;1.92;;;;;;;10.24;40.80;101760.38;4991854;28;20081;-73
2022/01/16 05:16:40;;;;;;;8.23;2.80;;;;;;;10.22;42.99;101768.22;5010221;28;20167;-72
2022/01/16 05:19:11;;;;;;;7.53;2.97;;;;;;;10.19;42.15;101772.47;5018398;28;20056;-73
2022/01/16 05:21:42;;;;;;;10.43;2.90;;;;;;;10.17;42.54;101761.00;5029702;28;20052;-73
2022/01/16 05:24:11;;;;;;;5.65;2.47;;;;;;;10.11;42.52;101782.75;5003042;28;20088;-72
2022/01/16 05:26:40;;;;;;;3.95;1.88;;;;;;;10.11;41.22;101782.75;5002178;28;20038;-73
2022/01/16 05:29:09;;;;;;;7.85;2.50;;;;;;;10.12;41.24;101794.19;5010151;28;20050;-72
2022/01/16 05:31:37;;;;;;;4.70;2.20;;;;;;;10.11;41.66;101795.94;5009634;28;20104;-73
2022/01/16 05:34:28;;;;;;;10.10;4.13;;;;;;;10.17;42.22;101783.00;5147199;27;20491;-74
2022/01/16 05:36:56;;;;;;;13.45;6.32;;;;;;;10.17;42.83;101788.28;5147057;27;20551;-74
2022/01/16 05:39:24;;;;;;;89.43;38.47;;;;;;;10.18;42.80;101795.34;5145073;27;20115;-74
2022/01/16 05:41:51;;;;;;;14.20;4.20;;;;;;;10.14;42.96;101788.13;5146039;27;20429;-74
2022/01/16 05:44:19;;;;;;;11.50;4.63;;;;;;;10.14;43.11;101793.41;5127354;27;20071;-73
2022/01/16 05:46:47;;;;;;;11.57;4.65;;;;;;;10.12;42.89;101794.19;5130405;27;20052;-74
2022/01/16 05:49:15;;;;;;;6.68;4.35;;;;;;;10.12;42.22;101794.19;5125009;27;20055;-74
2022/01/16 05:51:43;;;;;;;10.60;5.72;;;;;;;10.10;41.65;101810.00;5128402;27;20122;-73
2022/01/16 05:54:11;;;;;;;11.40;4.40;;;;;;;10.08;42.15;101809.03;5125697;27;20050;-74
2022/01/16 05:56:39;;;;;;;6.88;2.88;;;;;;;10.11;41.46;101813.53;5144123;27;20526;-74
2022/01/16 05:59:06;;;;;;;9.07;4.30;;;;;;;10.13;42.30;101810.09;5139954;27;20047;-74
2022/01/16 06:01:36;;;;;;;8.30;3.35;;;;;;;10.15;41.76;101802.22;5133089;27;20453;-74
2022/01/16 06:04:04;;;;;;;12.02;5.13;;;;;;;10.16;40.48;101820.75;5125752;27;20085;-74
2022/01/16 06:06:32;;;;;;;9.52;4.53;;;;;;;10.17;40.07;101825.22;5126861;27;20044;-74
2022/01/16 06:09:01;;;;;;;9.25;3.78;;;;;;;10.21;39.82;101836.78;5126761;27;20089;-74
2022/01/16 06:11:29;;;;;;;9.88;4.55;;;;;;;10.23;40.16;101843.91;5141192;27;20092;-74
2022/01/16 06:13:56;;;;;;;9.43;5.18;;;;;;;10.26;40.22;101845.72;5130125;27;20046;-73
2022/01/16 06:16:24;;;;;;;8.73;4.55;;;;;;;10.32;40.71;101824.81;5116448;27;20122;-74
2022/01/16 06:18:53;;;;;;;13.93;6.45;;;;;;;10.44;40.90;101850.72;5127972;27;20175;-73
2022/01/16 06:21:20;;;;;;;8.32;4.90;;;;;;;10.73;40.18;101863.16;5126691;27;20035;-74
2022/01/16 06:23:48;;;;;;;15.00;5.25;;;;;;;11.04;40.88;101868.56;5126831;27;20445;-74
2022/01/16 06:26:17;;;;;;;7.90;4.53;;;;;;;11.34;40.81;101868.63;5125315;27;20078;-74
2022/01/16 06:28:45;;;;;;;7.82;4.47;;;;;;;11.55;40.77;101856.03;5126601;27;20412;-74
2022/01/16 06:31:13;;;;;;;6.20;2.97;;;;;;;11.76;40.65;101849.59;5126674;27;20564;-75
2022/01/16 06:33:41;;;;;;;5.43;2.58;;;;;;;12.02;40.37;101852.97;5158180;27;20115;-74
2022/01/16 06:36:09;;;;;;;6.65;3.35;;;;;;;12.16;38.98;101871.00;5138629;27;20118;-74
2022/01/16 06:38:37;;;;;;;6.85;3.78;;;;;;;12.17;39.02;101878.09;5130744;27;20501;-74
2022/01/16 06:41:04;;;;;;;7.50;2.72;;;;;;;12.28;39.21;101879.28;5122194;27;20046;-75
2022/01/16 06:43:34;;;;;;;7.15;3.30;;;;;;;12.53;39.54;101872.00;5136624;27;20031;-75
2022/01/16 06:46:02;;;;;;;7.18;3.08;;;;;;;12.71;39.60;101883.94;5111684;27;20434;-75
2022/01/16 06:48:30;;;;;;;4.20;1.98;;;;;;;12.73;39.33;101890.16;5111143;27;20100;-75
2022/01/16 06:50:57;;;;;;;7.10;2.30;;;;;;;12.65;39.30;101882.88;5114974;27;20040;-74
2022/01/16 06:53:25;;;;;;;7.65;2.40;;;;;;;12.67;40.38;101890.00;5112469;27;20036;-75
2022/01/16 06:55:53;;;;;;;7.20;3.30;;;;;;;12.74;40.58;101899.91;5109719;27;20039;-75
2022/01/16 06:58:21;;;;;;;10.20;3.83;;;;;;;12.69;41.09;101890.03;5112076;27;20184;-75
2022/01/16 07:00:50;;;;;;;4.40;2.35;;;;;;;12.74;40.52;101889.28;5125781;27;20050;-74
2022/01/16 07:03:18;;;;;;;10.35;3.90;;;;;;;12.97;40.97;101887.22;5113722;27;20109;-75
2022/01/16 07:05:46;;;;;;;8.93;3.60;;;;;;;12.72;41.73;101890.13;5107205;27;20067;-75
2022/01/16 07:08:13;;;;;;;8.15;3.70;;;;;;;12.60;42.43;101879.25;5102190;27;20114;-74
2022/01/16 07:10:41;;;;;;;7.63;4.22;;;;;;;12.67;41.71;101892.66;5115905;27;20542;-75
2022/01/16 07:13:08;;;;;;;10.95;5.00;;;;;;;12.40;41.70;101912.25;5110321;28;20047;-74
2022/01/16 07:15:36;;;;;;;6.75;2.88;;;;;;;12.15;42.33;101919.50;5110539;27;20118;-75
2022/01/16 07:18:05;;;;;;;7.45;3.65;;;;;;;12.16;42.09;101917.75;5112242;27;20089;-75
2022/01/16 07:20:33;;;;;;;6.40;3.13;;;;;;;11.99;40.67;101922.59;5111901;27;20403;-74
2022/01/16 07:23:00;;;;;;;7.38;3.70;;;;;;;11.90;40.37;101944.38;5111913;27;20089;-75
2022/01/16 07:25:28;;;;;;;6.88;4.47;;;;;;;12.23;40.56;101951.50;5117206;27;20042;-75
2022/01/16 07:27:56;;;;;;;7.68;3.83;;;;;;;12.64;39.94;101948.22;5128608;27;20043;-75
2022/01/16 07:30:23;;;;;;;10.23;3.13;;;;;;;12.53;40.36;101940.84;5117289;27;20438;-74
2022/01/16 07:32:51;;;;;;;9.00;5.45;;;;;;;12.38;40.26;101942.22;5111033;27;20044;-75
2022/01/16 07:35:20;;;;;;;7.28;2.42;;;;;;;12.46;39.90;101947.75;5123123;27;20070;-74
2022/01/16 07:37:48;;;;;;;5.15;2.70;;;;;;;12.67;37.09;101936.78;5112264;27;20047;-74
2022/01/16 07:40:16;;;;;;;4.82;2.47;;;;;;;12.95;36.77;101951.63;5109415;27;20130;-75
2022/01/16 07:42:44;;;;;;;4.07;1.90;;;;;;;13.13;36.70;101954.78;5124075;27;20072;-74
2022/01/16 07:45:12;;;;;;;6.30;3.38;;;;;;;13.20;37.19;101969.97;5121237;27;20051;-75
2022/01/16 07:47:40;;;;;;;7.93;2.67;;;;;;;13.23;35.86;101956.81;5110117;27;20048;-75
2022/01/16 07:50:09;;;;;;;7.38;2.20;;;;;;;13.38;36.02;101938.63;5108350;27;20055;-74
2022/01/16 07:52:39;;;;;;;2.75;1.92;;;;;;;13.53;35.75;101952.19;5110779;27;20415;-74
2022/01/16 07:55:07;;;;;;;7.38;2.83;;;;;;;13.53;35.87;101977.84;5109496;27;20114;-75
2022/01/16 07:57:35;;;;;;;5.72;2.08;;;;;;;13.68;36.57;101980.84;5087724;27;20040;-75
2022/01/16 08:00:03;;;;;;;7.95;2.72;;;;;;;13.98;36.67;101976.19;5110189;27;20036;-75
2022/01/16 08:02:40;;;;;;;11.82;2.15;;;;;;;13.95;36.67;101948.69;5114880;27;20047;-73
2022/01/16 08:05:08;;;;;;;3.58;1.90;;;;;;;13.61;36.40;101959.44;5143888;27;20046;-72
2022/01/16 08:07:38;;;;;;;5.28;2.03;;;;;;;13.25;34.60;101944.50;5111644;27;20060;-72
2022/01/16 08:10:07;;;;;;;5.35;2.58;;;;;;;13.14;35.97;101953.91;5127850;27;20051;-72
2022/01/16 08:12:35;;;;;;;7.38;3.47;;;;;;;13.22;37.58;101964.72;5118733;27;20126;-72
2022/01/16 08:15:03;;;;;;;7.78;3.10;;;;;;;13.66;38.37;101952.47;5105973;27;21989;-72
2022/01/16 08:17:31;;;;;;;8.27;3.75;;;;;;;14.16;38.59;101953.56;5107805;27;20050;-72
2022/01/16 08:19:59;;;;;;;4.85;3.03;;;;;;;14.04;37.65;101934.72;5108826;27;20426;-72
2022/01/16 08:22:27;;;;;;;5.35;1.67;;;;;;;13.56;37.41;101954.94;5110215;27;20047;-72
2022/01/16 08:24:56;;;;;;;8.32;2.13;;;;;;;13.11;37.14;101965.34;5109035;27;20040;-72
2022/01/16 08:27:24;;;;;;;6.80;3.22;;;;;;;12.71;37.02;101958.13;5110344;27;20067;-72
2022/01/16 08:29:51;;;;;;;5.50;2.50;;;;;;;12.77;37.30;101946.78;5108303;27;20494;-72
2022/01/16 08:32:19;;;;;;;6.75;3.03;;;;;;;12.69;37.47;101943.94;5108918;27;20051;-72
2022/01/16 08:34:47;;;;;;;5.93;3.95;;;;;;;13.02;37.80;101933.28;5108540;27;20060;-72
2022/01/16 08:37:15;;;;;;;6.90;2.63;;;;;;;12.98;36.59;101927.88;5109868;27;20070;-71
2022/01/16 08:39:42;;;;;;;5.68;2.53;;;;;;;12.67;36.84;101940.34;5126358;27;20054;-71
2022/01/16 08:42:11;;;;;;;4.75;3.10;;;;;;;12.52;36.69;101928.47;5121120;27;20604;-72
2022/01/16 08:44:39;;;;;;;13.40;4.03;;;;;;;12.69;36.70;101949.22;5125349;27;20043;-72
2022/01/16 08:47:07;;;;;;;5.65;2.72;;;;;;;13.11;36.36;101949.44;5126607;27;20519;-73
2022/01/16 08:49:35;;;;;;;7.90;3.55;;;;;;;13.36;35.80;101935.00;5109882;28;20075;-73
2022/01/16 08:52:04;;;;;;;4.28;2.03;;;;;;;13.45;35.01;101929.94;5125310;27;20055;-71
2022/01/16 08:54:33;;;;;;;11.60;3.67;;;;;;;13.76;35.37;101926.19;5123783;27;20047;-71
2022/01/16 08:57:01;;;;;;;9.85;3.65;;;;;;;13.95;33.54;101938.09;5111666;27;20057;-71
2022/01/16 08:59:30;;;;;;;6.78;2.10;;;;;;;14.15;33.74;101927.88;5116710;27;20053;-71
2022/01/16 09:01:58;;;;;;;7.00;2.85;;;;;;;14.28;33.92;101930.78;5107424;27;20418;-71
2022/01/16 09:04:26;;;;;;;7.47;2.92;;;;;;;14.48;34.34;101914.34;5108222;27;20810;-71
2022/01/16 09:06:54;;;;;;;10.70;4.07;;;;;;;14.27;33.15;101929.00;5108352;27;20052;-71
2022/01/16 09:09:21;;;;;;;8.52;3.50;;;;;;;14.30;33.63;101925.50;5109073;27;20040;-71
2022/01/16 09:11:49;;;;;;;4.38;1.90;;;;;;;14.15;32.53;101912.81;5117152;27;20126;-71
2022/01/16 09:14:39;;;;;;;12.55;3.92;;;;;;;13.98;33.41;101912.47;5113313;27;20039;-71
2022/01/16 09:17:06;;;;;;;5.38;2.97;;;;;;;13.96;33.62;101897.41;5108407;27;20491;-71
2022/01/16 09:19:34;;;;;;;6.07;2.58;;;;;;;13.55;33.79;101918.66;5109720;27;20605;-71
2022/01/16 09:22:01;;;;;;;3.42;1.50;;;;;;;13.59;34.80;101926.69;5105625;27;20039;-71
2022/01/16 09:24:31;;;;;;;5.50;2.05;;;;;;;13.83;35.64;101909.53;5109033;27;20066;-71
2022/01/16 09:26:59;;;;;;;8.90;2.33;;;;;;;13.66;36.55;101924.19;5109202;27;20032;-71
2022/01/16 09:29:26;;;;;;;4.30;1.92;;;;;;;13.70;36.72;101918.09;5112167;27;20153;-72
2022/01/16 09:31:55;;;;;;;5.93;3.00;;;;;;;13.88;36.18;101923.78;5109291;27;20440;-70
2022/01/16 09:34:23;;;;;;;7.95;3.55;;;;;;;14.01;36.20;101932.88;5105423;27;20097;-71
2022/01/16 09:36:51;;;;;;;7.68;3.38;;;;;;;14.36;36.90;101926.53;5109679;27;20047;-71
2022/01/16 09:39:19;;;;;;;6.20;1.73;;;;;;;14.59;37.00;101907.47;5106773;27;20114;-71
2022/01/16 09:41:47;;;;;;;2.67;1.25;;;;;;;14.67;37.73;101922.69;5157766;27;20035;-73
2022/01/16 09:44:18;;;;;;;5.05;2.00;;;;;;;14.32;37.18;101899.84;5104240;27;20032;-71
2022/01/16 09:46:45;;;;;;;7.10;1.73;;;;;;;14.51;37.52;101904.66;5112230;27;20039;-71
2022/01/16 09:49:14;;;;;;;5.18;2.30;;;;;;;14.64;37.44;101911.09;5118186;27;20119;-71
2022/01/16 09:51:42;;;;;;;5.75;1.20;;;;;;;14.61;36.42;101919.03;5111311;27;20503;-71
2022/01/16 09:54:10;;;;;;;3.65;1.50;;;;;;;14.33;37.12;101904.28;5108922;28;20116;-74
2022/01/16 09:56:38;;;;;;;6.57;1.55;;;;;;;14.20;37.31;101902.28;5115069;27;20027;-75
2022/01/16 09:59:06;;;;;;;6.68;2.55;;;;;;;14.27;36.50;101901.53;5108659;27;20107;-73
2022/01/16 10:01:34;;;;;;;4.50;2.10;;;;;;;14.32;35.30;101897.19;5108804;27;20122;-74
2022/01/16 10:04:01;;;;;;;5.78;1.60;;;;;;;14.47;35.92;101886.88;5070494;27;20601;-74
2022/01/16 10:06:31;;;;;;;8.90;2.67;;;;;;;14.41;36.36;101909.78;5108079;27;20395;-73
2022/01/16 10:08:58;;;;;;;4.35;1.70;;;;;;;14.07;35.44;101869.28;5107519;27;20047;-74
2022/01/16 10:11:33;;;;;;;5.00;1.52;;;;;;;13.82;36.24;101890.91;5107239;27;20061;-73
2022/01/16 10:14:08;;;;;;;9.30;3.33;;;;;;;13.89;36.99;101882.22;5096146;27;20403;-73
2022/01/16 10:16:37;;;;;;;;;;;;;;;13.95;36.52;101883.22;5116668;27;20043;-73
2022/01/16 10:19:19;;;;;;;5.25;1.67;;;;;;;14.03;36.54;101896.66;5109213;27;19969;-73
2022/01/16 10:21:50;;;;;;;6.25;2.20;;;;;;;14.10;37.07;101901.22;5114630;27;20071;-75
2022/01/16 10:24:23;;;;;;;3.65;1.50;;;;;;;13.98;37.13;101897.44;5107178;27;20044;-74
2022/01/16 10:27:11;;;;;;;3.10;1.75;;;;;;;13.70;37.26;101899.53;5110383;27;20092;-74
2022/01/16 10:29:41;;;;;;;6.57;2.45;;;;;;;13.54;38.01;101914.19;5123162;27;20421;-71
2022/01/16 10:32:13;;;;;;;7.60;2.90;;;;;;;13.85;38.03;101912.19;5120854;27;20054;-71
2022/01/16 10:34:41;;;;;;;6.93;3.10;;;;;;;13.76;38.11;101904.94;5127621;27;20044;-71
2022/01/16 10:37:26;;;;;;;4.57;2.33;;;;;;;13.80;37.87;101895.28;5112015;27;20040;-73
2022/01/16 10:39:57;;;;;;;7.53;3.88;;;;;;;13.62;37.46;101889.59;5111462;27;20040;-74
2022/01/16 10:42:25;;;;;;;5.80;2.30;;;;;;;13.63;36.95;101872.81;5111391;27;20052;-74
2022/01/16 10:44:58;;;;;;;5.32;1.77;;;;;;;13.88;36.48;101838.84;5112904;27;20122;-74
2022/01/16 10:47:28;;;;;;;2.72;1.75;;;;;;;13.93;35.72;101847.78;5111067;27;20240;-73
2022/01/16 10:50:05;;;;;;;7.18;2.90;;;;;;;13.86;34.95;101853.81;5110503;27;20108;-73
2022/01/16 10:52:34;;;;;;;5.43;3.00;;;;;;;13.78;34.48;101850.16;5110469;27;20043;-74
2022/01/16 10:55:10;;;;;;;5.05;2.30;;;;;;;13.87;35.32;101865.34;5112932;27;20074;-73
2022/01/16 10:57:38;;;;;;;7.82;2.72;;;;;;;13.54;35.46;101885.03;5108869;28;20047;-73
2022/01/16 11:00:12;;;;;;;7.10;2.38;;;;;;;13.52;35.75;101864.66;5109620;27;20035;-73
2022/01/16 11:02:41;;;;;;;5.50;2.83;;;;;;;13.63;34.18;101873.72;5112575;27;20044;-73
2022/01/16 11:05:11;;;;;;;5.50;2.40;;;;;;;13.76;34.21;101866.91;5106788;27;20674;-73
2022/01/16 11:07:42;;;;;;;6.40;2.78;;;;;;;13.90;34.88;101865.41;5112096;27;20111;-73
2022/01/16 11:10:26;;;;;;;10.40;5.20;;;;;;;13.72;34.69;101859.75;5111061;27;20035;-74
2022/01/16 11:12:55;;;;;;;5.90;2.95;;;;;;;13.49;35.66;101870.78;5125196;27;20043;-75
2022/01/16 11:15:23;;;;;;;7.93;2.95;;;;;;;13.34;36.43;101875.72;5110004;27;20055;-73
2022/01/16 11:17:52;;;;;;;5.15;2.17;;;;;;;13.07;37.47;101883.00;5125707;27;20039;-73
2022/01/16 11:20:27;;;;;;;9.00;2.58;;;;;;;13.11;37.67;101871.66;5131948;27;20130;-73
2022/01/16 11:23:14;;;;;;;6.13;2.50;;;;;;;13.30;37.42;101865.03;5113178;27;20411;-74
2022/01/16 11:25:44;;;;;;;5.22;2.03;;;;;;;13.24;37.46;101880.81;5102927;27;20146;-74
2022/01/16 11:28:14;;;;;;;5.28;2.72;;;;;;;13.03;36.53;101875.88;5113842;27;20502;-75
2022/01/16 11:30:46;;;;;;;5.90;2.20;;;;;;;13.07;36.65;101868.00;5109215;27;20081;-74
2022/01/16 11:33:14;;;;;;;6.10;2.83;;;;;;;13.14;36.90;101869.97;5112017;27;20518;-74
2022/01/16 11:35:46;;;;;;;7.13;2.42;;;;;;;13.15;37.36;101871.78;5110887;27;20097;-74
2022/01/16 11:38:16;;;;;;;8.43;2.97;;;;;;;13.31;37.45;101870.38;5103175;27;20055;-75
2022/01/16 11:40:48;;;;;;;6.88;3.25;;;;;;;13.44;37.31;101866.22;5107964;27;20036;-74
2022/01/16 11:43:32;;;;;;;7.05;2.25;;;;;;;13.67;37.84;101867.59;5107141;27;20548;-74
2022/01/16 11:46:17;;;;;;;6.97;2.83;;;;;;;13.72;37.28;101876.53;5115402;27;20519;-74
2022/01/16 11:48:53;;;;;;;9.63;2.05;;;;;;;13.54;37.39;101879.72;5107055;27;20492;-74
2022/01/16 11:54:43;;;;;;;8.25;2.53;;;;;;;13.08;37.91;101872.44;5126768;27;20500;-74
2022/01/16 11:57:22;;;;;;;8.13;3.35;;;;;;;13.19;38.28;101854.19;5114052;27;20491;-74
2022/01/16 11:59:53;;;;;;;8.55;4.00;;;;;;;13.22;38.70;101862.19;5116581;27;20048;-74
2022/01/16 12:02:27;;;;;;;7.18;3.00;;;;;;;13.31;39.19;101875.69;5107225;27;20051;-74
2022/01/16 12:05:08;;;;;;;7.90;3.07;;;;;;;13.26;38.79;101872.00;5104126;27;20047;-74
2022/01/16 12:07:48;;;;;;;6.65;3.25;;;;;;;13.15;39.16;101879.72;5099235;27;20928;-74
2022/01/16 12:10:54;;;;;;;7.43;2.97;;;;;;;13.25;38.73;101886.16;5116942;27;20047;-74